createdAt,value
2024-01-29T00:01:57.263Z,6.87
2024-01-29T00:04:23.988Z,6.81
2024-01-29T00:06:50.836Z,6.81
2024-01-29T00:09:19.307Z,6.77
2024-01-29T00:11:46.009Z,6.74
2024-01-29T00:14:12.625Z,6.73
2024-01-29T00:16:39.139Z,6.73
2024-01-29T00:19:05.878Z,6.76
2024-01-29T00:21:32.531Z,6.72
2024-01-29T00:24:01.802Z,6.71
2024-01-29T00:26:28.982Z,6.66
2024-01-29T00:28:55.809Z,6.59
2024-01-29T00:31:23.932Z,6.64
2024-01-29T00:33:52.874Z,6.63
2024-01-29T00:36:19.699Z,6.53
2024-01-29T00:38:46.566Z,6.50
2024-01-29T00:41:13.190Z,6.52
2024-01-29T00:43:39.745Z,6.50
2024-01-29T00:46:06.432Z,6.45
2024-01-29T00:48:33.074Z,6.49
2024-01-29T00:50:59.726Z,6.48
2024-01-29T00:53:26.482Z,6.52
2024-01-29T00:55:54.781Z,6.51
2024-01-29T00:58:21.544Z,6.51
2024-01-29T01:00:51.925Z,6.49
2024-01-29T01:03:18.712Z,6.51
2024-01-29T01:05:45.310Z,6.40
2024-01-29T01:08:11.934Z,6.39
2024-01-29T01:10:38.497Z,6.29
2024-01-29T01:13:05.065Z,6.33
2024-01-29T01:15:31.640Z,6.25
2024-01-29T01:17:58.286Z,6.35
2024-01-29T01:20:25.402Z,6.29
2024-01-29T01:22:52.148Z,6.21
2024-01-29T01:25:18.775Z,6.13
2024-01-29T01:27:45.445Z,6.17
2024-01-29T01:30:12.229Z,6.18
2024-01-29T01:32:39.134Z,6.12
2024-01-29T01:35:06.327Z,6.10
2024-01-29T01:37:33.014Z,6.07
2024-01-29T01:39:59.740Z,6.08
2024-01-29T01:42:26.508Z,6.11
2024-01-29T01:44:53.964Z,6.00
2024-01-29T01:47:20.654Z,6.01
2024-01-29T01:49:47.618Z,5.93
2024-01-29T01:52:16.572Z,5.91
2024-01-29T01:54:43.893Z,5.90
2024-01-29T01:57:10.968Z,5.89
2024-01-29T01:59:39.694Z,5.93
2024-01-29T02:02:07.926Z,5.96
2024-01-29T02:04:34.829Z,5.90
2024-01-29T02:07:01.654Z,5.90
2024-01-29T02:09:28.672Z,5.88
2024-01-29T02:11:55.514Z,5.85
2024-01-29T02:14:22.027Z,5.81
2024-01-29T02:16:48.629Z,5.80
2024-01-29T02:19:18.729Z,5.78
2024-01-29T02:21:45.989Z,5.70
2024-01-29T02:24:12.872Z,5.63
2024-01-29T02:26:39.409Z,5.56
2024-01-29T02:29:05.975Z,5.63
2024-01-29T02:31:32.637Z,5.69
2024-01-29T02:33:59.332Z,5.68
2024-01-29T02:36:25.990Z,5.66
2024-01-29T02:38:52.605Z,5.66
2024-01-29T02:41:19.139Z,5.69
2024-01-29T02:43:45.764Z,5.68
2024-01-29T02:46:12.363Z,5.70
2024-01-29T02:48:40.016Z,5.70
2024-01-29T02:51:07.737Z,5.71
2024-01-29T02:53:34.620Z,5.69
2024-01-29T02:56:01.191Z,5.72
2024-01-29T02:58:27.913Z,5.76
2024-01-29T03:00:54.707Z,5.74
2024-01-29T03:03:21.565Z,5.74
2024-01-29T03:05:48.368Z,5.71
2024-01-29T03:08:15.044Z,5.70
2024-01-29T03:10:41.605Z,5.77
2024-01-29T03:13:08.317Z,5.71
2024-01-29T03:15:34.951Z,5.70
2024-01-29T03:18:01.750Z,5.76
2024-01-29T03:20:28.468Z,5.81
2024-01-29T03:22:55.180Z,5.83
2024-01-29T03:25:21.707Z,5.75
2024-01-29T03:27:48.256Z,5.73
2024-01-29T03:30:14.998Z,5.74
2024-01-29T03:32:41.668Z,5.72
2024-01-29T03:35:09.592Z,5.68
2024-01-29T03:37:36.129Z,5.64
2024-01-29T03:40:05.945Z,5.69
2024-01-29T03:42:32.639Z,5.61
2024-01-29T03:44:59.225Z,5.59
2024-01-29T03:47:25.764Z,5.62
2024-01-29T03:49:52.729Z,5.58
2024-01-29T03:52:19.601Z,5.55
2024-01-29T03:54:46.221Z,5.62
2024-01-29T03:57:12.796Z,5.58
2024-01-29T03:59:39.306Z,5.55
2024-01-29T04:02:05.889Z,5.55
2024-01-29T04:04:33.195Z,5.53
2024-01-29T04:07:00.083Z,5.52
2024-01-29T04:09:26.828Z,5.53
2024-01-29T04:11:53.504Z,5.50
2024-01-29T04:14:23.378Z,5.53
2024-01-29T04:16:50.650Z,5.48
2024-01-29T04:21:44.514Z,5.38
2024-01-29T04:24:14.261Z,5.37
2024-01-29T04:26:41.766Z,5.35
2024-01-29T04:29:10.209Z,5.32
2024-01-29T04:31:36.984Z,5.34
2024-01-29T04:34:04.458Z,5.32
2024-01-29T04:36:31.327Z,5.28
2024-01-29T04:38:57.864Z,5.29
2024-01-29T04:41:24.408Z,5.33
2024-01-29T04:43:51.155Z,5.35
2024-01-29T04:46:17.743Z,5.33
2024-01-29T04:48:44.366Z,5.35
2024-01-29T04:51:11.399Z,5.36
2024-01-29T04:53:38.495Z,5.34
2024-01-29T04:56:05.523Z,5.38
2024-01-29T04:58:32.387Z,5.41
2024-01-29T05:01:00.525Z,5.38
2024-01-29T05:03:28.031Z,5.32
2024-01-29T05:05:55.560Z,5.26
2024-01-29T05:08:22.408Z,5.28
2024-01-29T05:10:49.187Z,5.28
2024-01-29T05:13:16.511Z,5.18
2024-01-29T05:15:43.269Z,5.15
2024-01-29T05:18:09.995Z,5.09
2024-01-29T05:20:37.135Z,5.07
2024-01-29T05:23:03.970Z,4.96
2024-01-29T05:25:30.728Z,4.93
2024-01-29T05:27:57.309Z,4.99
2024-01-29T05:30:24.934Z,5.05
2024-01-29T05:32:51.736Z,5.10
2024-01-29T05:35:18.423Z,5.21
2024-01-29T05:37:45.064Z,5.21
2024-01-29T05:40:14.940Z,5.18
2024-01-29T05:42:41.604Z,5.25
2024-01-29T05:45:08.825Z,5.32
2024-01-29T05:47:35.489Z,5.30
2024-01-29T05:50:04.201Z,5.33
2024-01-29T05:52:30.955Z,5.31
2024-01-29T05:54:57.604Z,5.32
2024-01-29T05:57:24.315Z,5.36
2024-01-29T05:59:50.993Z,5.36
2024-01-29T06:02:17.665Z,5.32
2024-01-29T06:04:44.286Z,5.30
2024-01-29T06:07:11.161Z,5.23
2024-01-29T06:09:37.792Z,5.30
2024-01-29T06:12:04.594Z,5.29
2024-01-29T06:14:32.035Z,5.28
2024-01-29T06:16:58.901Z,5.24
2024-01-29T06:19:26.074Z,5.05
2024-01-29T06:21:52.811Z,5.00
2024-01-29T06:24:19.411Z,5.04
2024-01-29T06:26:48.781Z,5.04
2024-01-29T06:29:16.050Z,5.06
2024-01-29T06:31:42.881Z,5.05
2024-01-29T06:34:09.810Z,4.97
2024-01-29T06:36:36.602Z,4.94
2024-01-29T06:39:04.426Z,4.99
2024-01-29T06:41:32.394Z,4.93
2024-01-29T06:43:59.275Z,4.95
2024-01-29T06:46:26.153Z,4.89
2024-01-29T06:48:52.815Z,4.82
2024-01-29T06:51:19.505Z,4.85
2024-01-29T06:53:46.124Z,4.90
2024-01-29T06:56:12.783Z,4.97
2024-01-29T07:01:07.044Z,5.02
2024-01-29T07:03:34.400Z,5.08
2024-01-29T07:06:01.516Z,5.06
2024-01-29T07:08:28.106Z,5.06
2024-01-29T07:10:55.453Z,5.05
2024-01-29T07:13:21.979Z,4.94
2024-01-29T07:15:48.571Z,4.93
2024-01-29T07:18:15.170Z,4.92
2024-01-29T07:20:44.167Z,4.84
2024-01-29T07:23:10.908Z,4.84
2024-01-29T07:25:39.806Z,4.85
2024-01-29T07:28:07.181Z,4.88
2024-01-29T07:30:33.963Z,4.98
2024-01-29T07:33:01.682Z,4.96
2024-01-29T07:35:28.462Z,4.95
2024-01-29T07:37:55.185Z,4.94
2024-01-29T07:40:22.137Z,4.95
2024-01-29T07:42:48.809Z,4.99
2024-01-29T07:45:15.874Z,4.97
2024-01-29T07:47:42.615Z,4.93
2024-01-29T07:50:09.805Z,4.90
2024-01-29T07:52:37.602Z,4.92
2024-01-29T07:55:04.674Z,4.84
2024-01-29T07:57:31.955Z,4.83
2024-01-29T07:59:58.877Z,4.92
2024-01-29T08:02:25.742Z,4.86
2024-01-29T08:04:52.595Z,4.83
2024-01-29T08:07:19.374Z,4.85
2024-01-29T08:09:46.528Z,4.82
2024-01-29T08:12:13.204Z,4.97
2024-01-29T08:14:40.352Z,4.98
2024-01-29T08:17:07.272Z,5.17
2024-01-29T08:19:34.167Z,5.13
2024-01-29T08:22:01.001Z,5.11
2024-01-29T08:24:28.117Z,5.31
2024-01-29T08:26:54.737Z,5.36
2024-01-29T08:29:21.734Z,5.53
2024-01-29T08:31:48.388Z,5.51
2024-01-29T08:34:15.163Z,5.52
2024-01-29T08:36:41.919Z,5.56
2024-01-29T08:39:08.532Z,5.56
2024-01-29T08:41:35.473Z,5.63
2024-01-29T08:44:04.452Z,5.55
2024-01-29T08:46:31.311Z,5.59
2024-01-29T08:48:58.087Z,5.68
2024-01-29T08:51:24.995Z,5.80
2024-01-29T08:53:51.658Z,5.77
2024-01-29T08:56:19.230Z,6.03
2024-01-29T08:58:45.976Z,6.08
2024-01-29T09:01:12.609Z,6.29
2024-01-29T09:03:42.530Z,6.37
2024-01-29T09:06:10.010Z,6.90
2024-01-29T09:08:37.728Z,7.05
2024-01-29T09:11:04.356Z,7.03
2024-01-29T09:13:30.934Z,7.63
2024-01-29T09:15:57.604Z,7.72
2024-01-29T09:18:24.757Z,8.01
2024-01-29T09:20:51.354Z,7.66
2024-01-29T09:23:17.920Z,7.74
2024-01-29T09:25:44.457Z,7.63
2024-01-29T09:28:11.063Z,7.41
2024-01-29T09:30:37.793Z,8.55
2024-01-29T09:33:14.966Z,8.17
2024-01-29T09:35:45.157Z,8.75
2024-01-29T09:38:11.722Z,8.70
2024-01-29T09:40:38.422Z,8.79
2024-01-29T09:43:07.009Z,9.12
2024-01-29T09:45:37.439Z,8.95
2024-01-29T09:48:05.060Z,9.22
2024-01-29T09:50:31.928Z,9.23
2024-01-29T09:53:01.073Z,9.27
2024-01-29T09:55:28.602Z,9.89
2024-01-29T09:57:55.409Z,9.43
2024-01-29T10:00:22.058Z,9.42
2024-01-29T10:02:49.600Z,9.73
2024-01-29T10:05:16.640Z,9.41
2024-01-29T10:07:43.548Z,9.44
2024-01-29T10:10:11.211Z,9.55
2024-01-29T10:12:38.331Z,9.37
2024-01-29T10:15:05.896Z,10.01
2024-01-29T10:17:33.652Z,9.27
2024-01-29T10:20:00.530Z,9.47
2024-01-29T10:22:28.939Z,9.02
2024-01-29T10:25:05.159Z,8.84
2024-01-29T10:27:31.903Z,9.39
2024-01-29T10:29:58.837Z,9.82
2024-01-29T10:32:25.522Z,9.78
2024-01-29T10:34:52.395Z,10.13
2024-01-29T10:37:21.859Z,9.89
2024-01-29T10:39:56.560Z,10.22
2024-01-29T10:42:30.832Z,10.21
2024-01-29T10:45:00.342Z,9.85
2024-01-29T10:47:31.830Z,10.28
2024-01-29T10:49:59.409Z,9.57
2024-01-29T10:52:27.786Z,9.71
2024-01-29T10:54:56.977Z,9.65
2024-01-29T10:57:24.407Z,9.47
2024-01-29T10:59:52.827Z,9.83
2024-01-29T11:02:19.655Z,9.23
2024-01-29T11:04:46.314Z,9.44
2024-01-29T11:07:19.192Z,10.28
2024-01-29T11:09:52.115Z,10.30
2024-01-29T11:12:18.894Z,10.59
2024-01-29T11:14:57.325Z,10.81
2024-01-29T11:17:23.845Z,10.86
2024-01-29T11:19:52.189Z,10.41
2024-01-29T11:22:18.797Z,10.14
2024-01-29T11:24:47.161Z,10.43
2024-01-29T11:27:14.004Z,10.21
2024-01-29T11:29:40.583Z,10.08
2024-01-29T11:32:10.866Z,10.61
2024-01-29T11:34:38.305Z,10.55
2024-01-29T11:37:05.047Z,10.80
2024-01-29T11:39:31.672Z,11.02
2024-01-29T11:41:59.086Z,11.29
2024-01-29T11:44:26.367Z,11.42
2024-01-29T11:46:55.691Z,11.20
2024-01-29T11:49:26.900Z,11.01
2024-01-29T11:51:56.046Z,11.77
2024-01-29T11:54:24.940Z,11.63
2024-01-29T11:56:51.495Z,11.05
2024-01-29T11:59:18.110Z,10.90
2024-01-29T12:01:45.449Z,10.94
2024-01-29T12:04:17.157Z,10.76
2024-01-29T12:06:45.721Z,10.75
2024-01-29T12:09:13.197Z,10.82
2024-01-29T12:11:40.081Z,10.85
2024-01-29T12:14:09.170Z,11.58
2024-01-29T12:16:35.756Z,11.12
2024-01-29T12:19:02.563Z,11.28
2024-01-29T12:21:29.401Z,11.10
2024-01-29T12:23:56.893Z,10.97
2024-01-29T12:26:29.288Z,11.32
2024-01-29T12:29:00.244Z,11.59
2024-01-29T12:31:28.167Z,11.86
2024-01-29T12:33:54.877Z,11.25
2024-01-29T12:36:21.597Z,11.44
2024-01-29T12:38:58.497Z,11.31
2024-01-29T12:41:27.264Z,11.19
2024-01-29T12:43:53.887Z,11.07
2024-01-29T12:46:20.652Z,11.21
2024-01-29T12:48:47.664Z,11.22
2024-01-29T12:51:15.812Z,11.33
2024-01-29T12:53:53.769Z,11.23
2024-01-29T12:56:20.440Z,11.40
2024-01-29T12:58:46.967Z,11.01
2024-01-29T13:01:13.560Z,10.84
2024-01-29T13:03:41.393Z,10.90
2024-01-29T13:06:08.631Z,10.93
2024-01-29T13:08:36.476Z,10.76
2024-01-29T13:11:03.163Z,11.02
2024-01-29T13:13:30.055Z,10.90
2024-01-29T13:15:57.321Z,10.72
2024-01-29T13:18:26.594Z,10.70
2024-01-29T13:20:53.284Z,10.93
2024-01-29T13:23:20.128Z,11.12
2024-01-29T13:25:48.282Z,10.95
2024-01-29T13:28:15.192Z,10.99
2024-01-29T13:30:42.012Z,10.90
2024-01-29T13:33:08.654Z,10.74
2024-01-29T13:35:35.299Z,10.81
2024-01-29T13:38:01.874Z,10.97
2024-01-29T13:40:29.814Z,11.02
2024-01-29T13:42:57.825Z,11.19
2024-01-29T13:45:24.658Z,11.00
2024-01-29T13:47:53.603Z,11.17
2024-01-29T13:50:20.907Z,11.08
2024-01-29T13:52:47.905Z,11.09
2024-01-29T13:55:14.723Z,10.69
2024-01-29T13:57:41.456Z,10.74
2024-01-29T14:00:10.734Z,10.49
2024-01-29T14:02:37.435Z,10.52
2024-01-29T14:05:06.006Z,10.59
2024-01-29T14:07:33.597Z,10.63
2024-01-29T14:10:01.413Z,10.74
2024-01-29T14:12:28.235Z,10.64
2024-01-29T14:14:56.484Z,10.60
2024-01-29T14:17:23.036Z,10.84
2024-01-29T14:19:51.073Z,10.80
2024-01-29T14:22:19.851Z,10.57
2024-01-29T14:24:46.693Z,10.67
2024-01-29T14:27:16.027Z,10.48
2024-01-29T14:29:42.577Z,10.54
2024-01-29T14:32:14.953Z,10.56
2024-01-29T14:34:42.109Z,11.00
2024-01-29T14:37:08.981Z,11.08
2024-01-29T14:39:36.760Z,11.22
2024-01-29T14:42:03.628Z,11.30
2024-01-29T14:44:33.231Z,11.04
2024-01-29T14:47:01.489Z,11.30
2024-01-29T14:49:29.327Z,11.34
2024-01-29T14:51:56.377Z,11.54
2024-01-29T14:54:25.138Z,11.40
2024-01-29T14:56:52.092Z,11.75
2024-01-29T14:59:19.379Z,11.66
2024-01-29T15:01:46.197Z,11.53
2024-01-29T15:04:13.513Z,11.64
2024-01-29T15:06:40.598Z,11.48
2024-01-29T15:09:08.720Z,11.26
2024-01-29T15:11:35.356Z,11.09
2024-01-29T15:14:01.933Z,11.14
2024-01-29T15:16:28.470Z,11.13
2024-01-29T15:18:55.176Z,11.04
2024-01-29T15:21:21.836Z,10.96
2024-01-29T15:23:48.379Z,11.16
2024-01-29T15:26:16.019Z,10.93
2024-01-29T15:28:42.960Z,10.91
2024-01-29T15:31:09.812Z,10.72
2024-01-29T15:33:36.616Z,10.48
2024-01-29T15:36:04.904Z,10.49
2024-01-29T15:38:31.503Z,10.34
2024-01-29T15:40:58.222Z,10.31
2024-01-29T15:43:25.575Z,10.26
2024-01-29T15:45:53.219Z,10.27
2024-01-29T15:48:20.808Z,10.17
2024-01-29T15:50:47.457Z,10.15
2024-01-29T15:53:14.125Z,10.07
2024-01-29T15:55:40.736Z,10.16
2024-01-29T15:58:09.985Z,10.19
2024-01-29T16:00:40.149Z,10.05
2024-01-29T16:03:06.997Z,10.16
2024-01-29T16:05:34.219Z,9.98
2024-01-29T16:10:32.730Z,9.84
2024-01-29T16:12:59.372Z,9.81
2024-01-29T16:15:27.472Z,9.75
2024-01-29T16:17:54.206Z,9.87
2024-01-29T16:20:20.904Z,9.78
2024-01-29T16:22:47.588Z,9.84
2024-01-29T16:25:15.949Z,9.88
2024-01-29T16:27:45.543Z,9.89
2024-01-29T16:30:12.416Z,9.80
2024-01-29T16:32:39.234Z,9.83
2024-01-29T16:35:06.488Z,9.98
2024-01-29T16:37:34.015Z,10.04
2024-01-29T16:40:00.781Z,10.06
2024-01-29T16:42:27.547Z,10.02
2024-01-29T16:44:54.146Z,10.10
2024-01-29T16:47:20.671Z,10.08
2024-01-29T16:49:48.246Z,10.14
2024-01-29T16:52:15.263Z,10.17
2024-01-29T16:54:41.992Z,10.16
2024-01-29T16:57:08.807Z,10.24
2024-01-29T16:59:37.925Z,10.27
2024-01-29T17:02:07.577Z,10.19
2024-01-29T17:04:37.135Z,10.17
2024-01-29T17:07:04.326Z,10.08
2024-01-29T17:09:33.079Z,10.05
2024-01-29T17:11:59.890Z,10.11
2024-01-29T17:14:26.504Z,10.17
2024-01-29T17:16:53.039Z,10.11
2024-01-29T17:19:19.800Z,10.06
2024-01-29T17:21:46.533Z,10.03
2024-01-29T17:24:13.159Z,10.09
2024-01-29T17:26:39.720Z,10.22
2024-01-29T17:29:06.265Z,10.22
2024-01-29T17:31:32.790Z,10.21
2024-01-29T17:33:59.516Z,10.28
2024-01-29T17:36:26.479Z,10.32
2024-01-29T17:38:53.086Z,10.35
2024-01-29T17:41:21.436Z,10.35
2024-01-29T17:43:49.367Z,10.44
2024-01-29T17:46:16.405Z,10.39
2024-01-29T17:48:43.472Z,10.32
2024-01-29T17:51:12.041Z,10.24
2024-01-29T17:53:38.526Z,10.28
2024-01-29T17:56:05.447Z,10.39
2024-01-29T17:58:32.059Z,10.28
2024-01-29T18:00:58.690Z,10.29
2024-01-29T18:03:25.675Z,10.25
2024-01-29T18:05:52.513Z,10.32
2024-01-29T18:08:20.596Z,10.26
2024-01-29T18:10:47.171Z,10.23
2024-01-29T18:13:13.835Z,10.28
2024-01-29T18:15:40.525Z,10.14
2024-01-29T18:18:07.276Z,10.18
2024-01-29T18:20:33.838Z,10.21
2024-01-29T18:23:01.693Z,10.20
2024-01-29T18:25:28.306Z,10.21
2024-01-29T18:27:54.862Z,10.19
2024-01-29T18:30:21.472Z,10.26
2024-01-29T18:32:48.078Z,10.16
2024-01-29T18:35:14.868Z,10.15
2024-01-29T18:37:44.317Z,10.13
2024-01-29T18:40:11.571Z,10.19
2024-01-29T18:42:38.302Z,10.17
2024-01-29T18:45:05.742Z,10.26
2024-01-29T18:47:32.370Z,10.23
2024-01-29T18:49:58.993Z,10.22
2024-01-29T18:52:25.753Z,10.29
2024-01-29T18:54:52.369Z,10.25
2024-01-29T18:57:18.985Z,10.34
2024-01-29T18:59:45.682Z,10.28
2024-01-29T19:02:12.273Z,10.29
2024-01-29T19:04:39.312Z,10.27
2024-01-29T19:07:06.059Z,10.25
2024-01-29T19:09:32.650Z,10.25
2024-01-29T19:11:59.284Z,10.22
2024-01-29T19:14:26.141Z,10.19
2024-01-29T19:16:52.685Z,10.09
2024-01-29T19:19:19.679Z,10.07
2024-01-29T19:21:46.313Z,10.10
2024-01-29T19:24:12.895Z,10.05
2024-01-29T19:26:39.568Z,10.03
2024-01-29T19:29:06.432Z,9.98
2024-01-29T19:31:33.006Z,10.06
2024-01-29T19:33:59.748Z,10.00
2024-01-29T19:36:26.353Z,10.03
2024-01-29T19:38:53.649Z,10.05
2024-01-29T19:41:20.385Z,10.08
2024-01-29T19:43:47.054Z,10.08
2024-01-29T19:46:13.897Z,10.02
2024-01-29T19:48:41.152Z,10.13
2024-01-29T19:51:08.220Z,10.26
2024-01-29T19:53:35.193Z,10.31
2024-01-29T19:56:01.799Z,10.34
2024-01-29T19:58:28.364Z,10.44
2024-01-29T20:00:55.094Z,10.43
2024-01-29T20:03:21.773Z,10.42
2024-01-29T20:05:49.436Z,10.47
2024-01-29T20:08:16.137Z,10.45
2024-01-29T20:10:42.840Z,10.35
2024-01-29T20:13:10.389Z,10.41
2024-01-29T20:15:37.685Z,10.31
2024-01-29T20:18:04.709Z,10.24
2024-01-29T20:20:31.362Z,10.21
2024-01-29T20:23:01.008Z,10.19
2024-01-29T20:25:28.280Z,10.04
2024-01-29T20:27:55.495Z,10.00
2024-01-29T20:30:22.686Z,9.92
2024-01-29T20:32:52.507Z,9.87
2024-01-29T20:35:22.740Z,9.83
2024-01-29T20:37:51.928Z,9.79
2024-01-29T20:40:19.330Z,9.77
2024-01-29T20:42:45.976Z,9.70
2024-01-29T20:45:12.583Z,9.76
2024-01-29T20:47:39.298Z,9.68
2024-01-29T20:50:09.203Z,9.68
2024-01-29T20:52:35.818Z,9.74
2024-01-29T20:55:07.724Z,9.68
2024-01-29T20:57:40.930Z,9.74
2024-01-29T21:00:08.168Z,9.64
2024-01-29T21:02:34.799Z,9.60
2024-01-29T21:05:01.925Z,9.67
2024-01-29T21:07:30.136Z,9.63
2024-01-29T21:09:56.799Z,9.63
2024-01-29T21:12:23.608Z,9.64
2024-01-29T21:14:50.230Z,9.63
2024-01-29T21:17:16.866Z,9.56
2024-01-29T21:19:45.773Z,9.52
2024-01-29T21:22:13.291Z,9.51
2024-01-29T21:24:39.932Z,9.42
2024-01-29T21:27:06.995Z,9.51
2024-01-29T21:29:33.728Z,9.43
2024-01-29T21:32:00.417Z,9.44
2024-01-29T21:34:27.065Z,9.43
2024-01-29T21:36:54.115Z,9.45
2024-01-29T21:39:20.743Z,9.36
2024-01-29T21:41:47.535Z,9.35
2024-01-29T21:44:14.060Z,9.38
2024-01-29T21:46:40.613Z,9.34
2024-01-29T21:49:07.888Z,9.39
2024-01-29T21:51:35.531Z,9.34
2024-01-29T21:54:02.219Z,9.34
2024-01-29T21:56:28.899Z,9.26
2024-01-29T21:58:55.530Z,9.25
2024-01-29T22:01:22.263Z,9.14
2024-01-29T22:03:48.965Z,9.09
2024-01-29T22:06:21.890Z,9.10
2024-01-29T22:08:48.524Z,9.17
2024-01-29T22:11:15.118Z,9.18
2024-01-29T22:13:44.657Z,9.21
2024-01-29T22:16:11.326Z,9.18
2024-01-29T22:18:38.051Z,9.28
2024-01-29T22:21:05.745Z,9.27
2024-01-29T22:23:32.263Z,9.26
2024-01-29T22:25:58.869Z,9.39
2024-01-29T22:28:25.577Z,9.33
2024-01-29T22:30:52.215Z,9.38
2024-01-29T22:33:19.490Z,9.34
2024-01-29T22:35:46.197Z,9.40
2024-01-29T22:38:13.810Z,9.44
2024-01-29T22:40:40.374Z,9.44
2024-01-29T22:43:06.941Z,9.43
2024-01-29T22:45:33.430Z,9.40
2024-01-29T22:48:00.843Z,9.39
2024-01-29T22:50:27.981Z,9.39
2024-01-29T22:52:54.782Z,9.40
2024-01-29T22:55:24.234Z,9.50
2024-01-29T22:57:51.045Z,9.41
2024-01-29T23:00:23.264Z,9.44
2024-01-29T23:02:49.839Z,9.46
2024-01-29T23:05:16.647Z,9.44
2024-01-29T23:07:43.339Z,9.53
2024-01-29T23:10:10.687Z,9.55
2024-01-29T23:12:37.406Z,9.48
2024-01-29T23:15:04.704Z,9.50
2024-01-29T23:17:31.510Z,9.52
2024-01-29T23:19:58.216Z,9.46
2024-01-29T23:22:24.845Z,9.53
2024-01-29T23:24:51.414Z,9.57
2024-01-29T23:27:18.823Z,9.61
2024-01-29T23:29:45.443Z,9.60
2024-01-29T23:32:12.133Z,9.60
2024-01-29T23:34:38.987Z,9.59
2024-01-29T23:37:05.604Z,9.66
2024-01-29T23:39:32.210Z,9.68
2024-01-29T23:41:58.744Z,9.69
2024-01-29T23:44:25.469Z,9.58
2024-01-29T23:46:51.959Z,9.70
2024-01-29T23:49:18.566Z,9.70
2024-01-29T23:51:45.212Z,9.73
2024-01-29T23:54:11.761Z,9.72
2024-01-29T23:56:38.322Z,9.73
2024-01-29T23:59:04.835Z,9.66
